sensor_id;sensor_type;location;lat;lon;timestamp;pressure;altitude;pressure_sealevel;temperature;humidity
77410;BME280;66481;51.332;22.804;2023-12-04T00:00:56;99865.59;;;-3.85;95.07
77410;BME280;66481;51.332;22.804;2023-12-04T00:05:17;99864.69;;;-3.84;95.00
77410;BME280;66481;51.332;22.804;2023-12-04T00:09:18;99857.88;;;-3.90;94.79
77410;BME280;66481;51.332;22.804;2023-12-04T00:13:20;99870.81;;;-3.91;95.19
77410;BME280;66481;51.332;22.804;2023-12-04T00:17:22;99858.84;;;-3.99;95.82
77410;BME280;66481;51.332;22.804;2023-12-04T00:21:23;99872.59;;;-3.97;96.56
77410;BME280;66481;51.332;22.804;2023-12-04T00:25:24;99871.78;;;-4.00;96.49
77410;BME280;66481;51.332;22.804;2023-12-04T00:29:25;99873.50;;;-3.99;96.26
77410;BME280;66481;51.332;22.804;2023-12-04T00:33:27;99890.69;;;-3.97;97.41
77410;BME280;66481;51.332;22.804;2023-12-04T00:37:28;99875.41;;;-4.13;97.63
77410;BME280;66481;51.332;22.804;2023-12-04T00:41:29;99886.47;;;-4.04;97.22
77410;BME280;66481;51.332;22.804;2023-12-04T00:45:30;99889.03;;;-3.99;98.27
77410;BME280;66481;51.332;22.804;2023-12-04T00:49:32;99889.97;;;-4.06;97.69
77410;BME280;66481;51.332;22.804;2023-12-04T00:53:33;99895.97;;;-4.04;97.96
77410;BME280;66481;51.332;22.804;2023-12-04T00:57:34;99879.63;;;-4.06;98.17
77410;BME280;66481;51.332;22.804;2023-12-04T01:01:36;99884.00;;;-4.13;98.02
77410;BME280;66481;51.332;22.804;2023-12-04T01:05:37;99877.13;;;-4.16;98.35
77410;BME280;66481;51.332;22.804;2023-12-04T01:09:38;99877.94;;;-4.10;98.37
77410;BME280;66481;51.332;22.804;2023-12-04T01:13:39;99861.53;;;-4.05;98.49
77410;BME280;66481;51.332;22.804;2023-12-04T01:17:41;99884.03;;;-4.14;98.44
77410;BME280;66481;51.332;22.804;2023-12-04T01:21:42;99890.81;;;-4.07;98.46
77410;BME280;66481;51.332;22.804;2023-12-04T01:25:43;99877.94;;;-4.10;98.78
77410;BME280;66481;51.332;22.804;2023-12-04T01:29:45;99883.91;;;-4.07;98.54
77410;BME280;66481;51.332;22.804;2023-12-04T01:33:46;99893.41;;;-4.07;98.29
77410;BME280;66481;51.332;22.804;2023-12-04T01:37:47;99900.22;;;-4.00;98.44
77410;BME280;66481;51.332;22.804;2023-12-04T01:41:48;99885.66;;;-4.09;98.15
77410;BME280;66481;51.332;22.804;2023-12-04T01:45:49;99886.53;;;-4.08;98.29
77410;BME280;66481;51.332;22.804;2023-12-04T01:49:53;99890.81;;;-4.06;98.37
77410;BME280;66481;51.332;22.804;2023-12-04T01:53:55;99895.94;;;-4.01;97.94
77410;BME280;66481;51.332;22.804;2023-12-04T01:58:00;99893.38;;;-4.04;97.73
77410;BME280;66481;51.332;22.804;2023-12-04T02:02:04;99889.06;;;-4.04;98.42
77410;BME280;66481;51.332;22.804;2023-12-04T02:06:06;99894.19;;;-3.99;98.27
77410;BME280;66481;51.332;22.804;2023-12-04T02:10:08;99893.41;;;-4.07;98.67
77410;BME280;66481;51.332;22.804;2023-12-04T02:14:09;99882.22;;;-4.08;98.45
77410;BME280;66481;51.332;22.804;2023-12-04T02:18:11;99895.16;;;-4.08;98.67
77410;BME280;66481;51.332;22.804;2023-12-04T02:22:12;99890.81;;;-4.04;99.02
77410;BME280;66481;51.332;22.804;2023-12-04T02:26:27;99888.22;;;-4.04;99.24
77410;BME280;66481;51.332;22.804;2023-12-04T02:30:30;99877.88;;;-4.06;98.90
77410;BME280;66481;51.332;22.804;2023-12-04T02:34:33;99880.44;;;-4.03;99.10
77410;BME280;66481;51.332;22.804;2023-12-04T02:38:34;99887.41;;;-4.08;98.99
77410;BME280;66481;51.332;22.804;2023-12-04T02:42:35;99894.25;;;-4.07;98.75
77410;BME280;66481;51.332;22.804;2023-12-04T02:46:36;99892.47;;;-4.02;99.46
77410;BME280;66481;51.332;22.804;2023-12-04T02:50:37;99895.97;;;-4.06;98.38
77410;BME280;66481;51.332;22.804;2023-12-04T02:54:38;99900.19;;;-3.97;99.51
77410;BME280;66481;51.332;22.804;2023-12-04T02:58:39;99901.06;;;-3.98;99.31
77410;BME280;66481;51.332;22.804;2023-12-04T03:02:40;99906.25;;;-4.00;98.74
77410;BME280;66481;51.332;22.804;2023-12-04T03:06:41;99905.34;;;-3.95;98.86
77410;BME280;66481;51.332;22.804;2023-12-04T03:10:42;99914.78;;;-3.93;99.32
77410;BME280;66481;51.332;22.804;2023-12-04T03:14:43;99911.38;;;-3.98;99.08
77410;BME280;66481;51.332;22.804;2023-12-04T03:18:45;99920.75;;;-3.89;99.21
77410;BME280;66481;51.332;22.804;2023-12-04T03:22:46;99920.75;;;-3.89;98.79
77410;BME280;66481;51.332;22.804;2023-12-04T03:26:47;99912.25;;;-3.96;98.48
77410;BME280;66481;51.332;22.804;2023-12-04T03:30:48;99931.06;;;-3.86;99.28
77410;BME280;66481;51.332;22.804;2023-12-04T03:34:49;99921.66;;;-3.90;98.91
77410;BME280;66481;51.332;22.804;2023-12-04T03:38:50;99915.66;;;-3.94;99.04
77410;BME280;66481;51.332;22.804;2023-12-04T03:42:51;99905.34;;;-3.95;99.39
77410;BME280;66481;51.332;22.804;2023-12-04T03:46:52;99912.28;;;-4.01;99.88
77410;BME280;66481;51.332;22.804;2023-12-04T03:50:52;99904.56;;;-4.02;99.85
77410;BME280;66481;51.332;22.804;2023-12-04T03:54:53;99912.28;;;-4.01;99.66
77410;BME280;66481;51.332;22.804;2023-12-04T03:58:54;99915.72;;;-4.02;99.48
77410;BME280;66481;51.332;22.804;2023-12-04T04:02:55;99915.00;;;-4.11;99.73
77410;BME280;66481;51.332;22.804;2023-12-04T04:06:56;99926.13;;;-4.05;100.00
77410;BME280;66481;51.332;22.804;2023-12-04T04:10:57;99926.16;;;-4.08;100.00
77410;BME280;66481;51.332;22.804;2023-12-04T04:14:59;99939.88;;;-4.01;100.00
77410;BME280;66481;51.332;22.804;2023-12-04T04:19:00;99944.09;;;-3.95;99.96
77410;BME280;66481;51.332;22.804;2023-12-04T04:23:01;99938.09;;;-3.98;100.00
77410;BME280;66481;51.332;22.804;2023-12-04T04:27:02;99944.94;;;-3.93;100.00
77410;BME280;66481;51.332;22.804;2023-12-04T04:31:03;99937.31;;;-4.04;99.54
77410;BME280;66481;51.332;22.804;2023-12-04T04:35:04;99950.94;;;-3.91;99.70
77410;BME280;66481;51.332;22.804;2023-12-04T04:39:05;99957.03;;;-3.94;100.00
77410;BME280;66481;51.332;22.804;2023-12-04T04:43:08;99963.00;;;-3.89;100.00
77410;BME280;66481;51.332;22.804;2023-12-04T04:47:08;99962.19;;;-3.95;100.00
77410;BME280;66481;51.332;22.804;2023-12-04T04:51:09;99963.03;;;-3.93;100.00
77410;BME280;66481;51.332;22.804;2023-12-04T04:55:10;99976.75;;;-3.87;100.00
77410;BME280;66481;51.332;22.804;2023-12-04T04:59:11;99981.06;;;-3.86;100.00
77410;BME280;66481;51.332;22.804;2023-12-04T05:03:13;99984.53;;;-3.88;100.00
77410;BME280;66481;51.332;22.804;2023-12-04T05:07:14;99994.03;;;-3.90;100.00
77410;BME280;66481;51.332;22.804;2023-12-04T05:11:15;99992.28;;;-3.88;100.00
77410;BME280;66481;51.332;22.804;2023-12-04T05:15:16;100012.84;;;-3.79;100.00
77410;BME280;66481;51.332;22.804;2023-12-04T05:19:17;100004.22;;;-3.76;100.00
77410;BME280;66481;51.332;22.804;2023-12-04T05:23:18;100010.25;;;-3.76;100.00
77410;BME280;66481;51.332;22.804;2023-12-04T05:27:19;100001.66;;;-3.80;100.00
77410;BME280;66481;51.332;22.804;2023-12-04T05:31:21;99993.06;;;-3.79;100.00
77410;BME280;66481;51.332;22.804;2023-12-04T05:35:22;100001.59;;;-3.72;100.00
77410;BME280;66481;51.332;22.804;2023-12-04T05:39:23;100005.91;;;-3.75;100.00
77410;BME280;66481;51.332;22.804;2023-12-04T05:43:24;100017.88;;;-3.65;100.00
77410;BME280;66481;51.332;22.804;2023-12-04T05:47:26;100010.16;;;-3.67;100.00
77410;BME280;66481;51.332;22.804;2023-12-04T05:51:27;100017.91;;;-3.67;100.00
77410;BME280;66481;51.332;22.804;2023-12-04T05:55:28;100014.47;;;-3.70;100.00
77410;BME280;66481;51.332;22.804;2023-12-04T05:59:29;100023.94;;;-3.68;100.00
77410;BME280;66481;51.332;22.804;2023-12-04T06:03:30;100026.50;;;-3.63;100.00
77410;BME280;66481;51.332;22.804;2023-12-04T06:07:31;100027.38;;;-3.66;100.00
77410;BME280;66481;51.332;22.804;2023-12-04T06:11:31;100029.91;;;-3.61;100.00
77410;BME280;66481;51.332;22.804;2023-12-04T06:15:32;100043.69;;;-3.59;100.00
77410;BME280;66481;51.332;22.804;2023-12-04T06:19:34;100044.53;;;-3.60;100.00
77410;BME280;66481;51.332;22.804;2023-12-04T06:23:36;100037.66;;;-3.60;100.00
77410;BME280;66481;51.332;22.804;2023-12-04T06:27:37;100047.94;;;-3.56;100.00
77410;BME280;66481;51.332;22.804;2023-12-04T06:31:39;100049.63;;;-3.49;100.00
77410;BME280;66481;51.332;22.804;2023-12-04T06:35:41;100057.38;;;-3.49;100.00
77410;BME280;66481;51.332;22.804;2023-12-04T06:39:50;100063.38;;;-3.46;100.00
77410;BME280;66481;51.332;22.804;2023-12-04T06:43:54;100053.06;;;-3.47;100.00
77410;BME280;66481;51.332;22.804;2023-12-04T06:47:55;100049.56;;;-3.46;100.00
77410;BME280;66481;51.332;22.804;2023-12-04T06:52:00;100067.59;;;-3.35;100.00
77410;BME280;66481;51.332;22.804;2023-12-04T06:56:02;100064.91;;;-3.28;100.00
77410;BME280;66481;51.332;22.804;2023-12-04T07:00:04;100056.34;;;-3.34;100.00
77410;BME280;66481;51.332;22.804;2023-12-04T07:04:07;100071.81;;;-3.28;100.00
77410;BME280;66481;51.332;22.804;2023-12-04T07:08:10;100067.41;;;-3.20;100.00
77410;BME280;66481;51.332;22.804;2023-12-04T07:12:11;100065.69;;;-3.23;99.66
77410;BME280;66481;51.332;22.804;2023-12-04T07:16:13;100074.25;;;-3.16;99.61
77410;BME280;66481;51.332;22.804;2023-12-04T07:20:14;100060.47;;;-3.18;99.36
77410;BME280;66481;51.332;22.804;2023-12-04T07:24:15;100071.63;;;-3.11;99.82
77410;BME280;66481;51.332;22.804;2023-12-04T07:28:18;100074.16;;;-3.10;98.91
77410;BME280;66481;51.332;22.804;2023-12-04T07:32:19;100063.81;;;-3.10;98.96
77410;BME280;66481;51.332;22.804;2023-12-04T07:41:17;100066.34;;;-3.04;98.78
77410;BME280;66481;51.332;22.804;2023-12-04T07:45:19;100075.72;;;-2.96;98.73
77410;BME280;66481;51.332;22.804;2023-12-04T07:49:22;100069.66;;;-2.94;97.87
77410;BME280;66481;51.332;22.804;2023-12-04T07:53:24;100083.41;;;-2.87;98.07
77410;BME280;66481;51.332;22.804;2023-12-04T07:57:25;100074.72;;;-2.83;97.76
77410;BME280;66481;51.332;22.804;2023-12-04T08:01:26;100084.94;;;-2.74;97.34
77410;BME280;66481;51.332;22.804;2023-12-04T08:05:27;100090.81;;;-2.59;97.35
77410;BME280;66481;51.332;22.804;2023-12-04T08:09:29;100088.22;;;-2.59;97.00
77410;BME280;66481;51.332;22.804;2023-12-04T08:13:30;100088.09;;;-2.52;96.64
77410;BME280;66481;51.332;22.804;2023-12-04T08:17:31;100086.28;;;-2.47;95.91
77410;BME280;66481;51.332;22.804;2023-12-04T08:21:32;100091.44;;;-2.43;95.42
77410;BME280;66481;51.332;22.804;2023-12-04T08:25:33;100096.53;;;-2.39;95.37
77410;BME280;66481;51.332;22.804;2023-12-04T08:29:34;100086.31;;;-2.50;95.25
77410;BME280;66481;51.332;22.804;2023-12-04T08:33:36;100094.72;;;-2.32;95.21
77410;BME280;66481;51.332;22.804;2023-12-04T08:37:36;100093.16;;;-2.44;94.44
77410;BME280;66481;51.332;22.804;2023-12-04T08:41:38;100099.97;;;-2.35;94.51
77410;BME280;66481;51.332;22.804;2023-12-04T08:45:39;100095.69;;;-2.39;94.15
77410;BME280;66481;51.332;22.804;2023-12-04T08:49:40;100105.94;;;-2.32;94.24
77410;BME280;66481;51.332;22.804;2023-12-04T08:53:41;100094.81;;;-2.38;94.34
77410;BME280;66481;51.332;22.804;2023-12-04T08:57:43;100117.97;;;-2.28;94.07
77410;BME280;66481;51.332;22.804;2023-12-04T09:01:44;100084.28;;;-2.28;93.24
77410;BME280;66481;51.332;22.804;2023-12-04T09:05:45;100079.97;;;-2.29;93.07
77410;BME280;66481;51.332;22.804;2023-12-04T09:09:46;100110.63;;;-1.99;92.94
77410;BME280;66481;51.332;22.804;2023-12-04T09:13:47;100091.88;;;-2.15;92.47
77410;BME280;66481;51.332;22.804;2023-12-04T09:17:48;100115.34;;;-1.72;92.29
77410;BME280;66481;51.332;22.804;2023-12-04T09:21:49;100091.19;;;-1.74;91.54
77410;BME280;66481;51.332;22.804;2023-12-04T09:25:50;100096.56;;;-1.84;91.30
77410;BME280;66481;51.332;22.804;2023-12-04T09:29:51;100090.34;;;-1.74;91.24
77410;BME280;66481;51.332;22.804;2023-12-04T09:33:52;100093.66;;;-1.66;90.98
77410;BME280;66481;51.332;22.804;2023-12-04T09:37:54;100078.19;;;-1.72;90.27
77410;BME280;66481;51.332;22.804;2023-12-04T09:41:55;100076.31;;;-1.64;90.10
77410;BME280;66481;51.332;22.804;2023-12-04T09:46:01;100076.41;;;-1.70;90.03
77410;BME280;66481;51.332;22.804;2023-12-04T09:50:03;100078.91;;;-1.62;90.17
77410;BME280;66481;51.332;22.804;2023-12-04T09:54:04;100064.97;;;-1.58;89.66
77410;BME280;66481;51.332;22.804;2023-12-04T09:58:06;100069.84;;;-1.41;89.75
77410;BME280;66481;51.332;22.804;2023-12-04T10:02:09;100073.31;;;-1.42;88.96
77410;BME280;66481;51.332;22.804;2023-12-04T10:06:15;100072.03;;;-1.20;88.33
77410;BME280;66481;51.332;22.804;2023-12-04T10:10:18;100070.94;;;-1.08;87.85
77410;BME280;66481;51.332;22.804;2023-12-04T10:14:21;100026.66;;;-1.45;87.46
77410;BME280;66481;51.332;22.804;2023-12-04T10:18:31;100052.56;;;-1.42;87.99
77410;BME280;66481;51.332;22.804;2023-12-04T10:22:32;100035.44;;;-1.51;88.00
77410;BME280;66481;51.332;22.804;2023-12-04T10:26:33;100023.72;;;-1.72;88.11
77410;BME280;66481;51.332;22.804;2023-12-04T10:30:34;100034.97;;;-1.73;88.40
77410;BME280;66481;51.332;22.804;2023-12-04T10:34:35;100038.22;;;-1.60;88.39
77410;BME280;66481;51.332;22.804;2023-12-04T10:38:36;100031.28;;;-1.61;88.21
77410;BME280;66481;51.332;22.804;2023-12-04T10:42:37;100030.78;;;-1.35;88.08
77410;BME280;66481;51.332;22.804;2023-12-04T10:46:41;100056.06;;;-1.00;86.79
77410;BME280;66481;51.332;22.804;2023-12-04T10:50:44;100040.59;;;-1.06;86.75
77410;BME280;66481;51.332;22.804;2023-12-04T10:54:46;100048.41;;;-0.67;85.82
77410;BME280;66481;51.332;22.804;2023-12-04T10:58:50;100027.16;;;-0.84;85.45
77410;BME280;66481;51.332;22.804;2023-12-04T11:02:55;100025.03;;;-1.07;85.22
77410;BME280;66481;51.332;22.804;2023-12-04T11:06:59;100042.81;;;-0.87;85.01
77410;BME280;66481;51.332;22.804;2023-12-04T11:11:04;100040.00;;;-0.78;85.14
77410;BME280;66481;51.332;22.804;2023-12-04T11:15:14;100026.25;;;-0.83;84.85
77410;BME280;66481;51.332;22.804;2023-12-04T11:19:29;100033.25;;;-1.27;85.14
77410;BME280;66481;51.332;22.804;2023-12-04T11:23:34;100058.19;;;-1.20;85.36
77410;BME280;66481;51.332;22.804;2023-12-04T11:27:35;100045.31;;;-1.26;85.50
77410;BME280;66481;51.332;22.804;2023-12-04T11:31:36;100054.84;;;-1.72;86.04
77410;BME280;66481;51.332;22.804;2023-12-04T11:35:38;100062.66;;;-1.74;86.34
77410;BME280;66481;51.332;22.804;2023-12-04T11:39:42;100065.50;;;-1.87;86.82
77410;BME280;66481;51.332;22.804;2023-12-04T11:43:45;100079.97;;;-1.74;87.48
77410;BME280;66481;51.332;22.804;2023-12-04T11:47:57;100070.09;;;-1.54;87.10
77410;BME280;66481;51.332;22.804;2023-12-04T11:51:59;100071.28;;;-1.26;86.50
77410;BME280;66481;51.332;22.804;2023-12-04T11:56:09;100056.69;;;-1.32;85.50
77410;BME280;66481;51.332;22.804;2023-12-04T12:00:21;100060.75;;;-1.17;85.18
77410;BME280;66481;51.332;22.804;2023-12-04T12:04:23;100045.22;;;-1.65;85.62
77410;BME280;66481;51.332;22.804;2023-12-04T12:08:24;100057.25;;;-1.61;85.35
77410;BME280;66481;51.332;22.804;2023-12-04T12:12:27;100067.78;;;-1.69;86.26
77410;BME280;66481;51.332;22.804;2023-12-04T12:16:28;100063.44;;;-1.68;86.06
77410;BME280;66481;51.332;22.804;2023-12-04T12:20:29;100044.78;;;-1.91;86.06
77410;BME280;66481;51.332;22.804;2023-12-04T12:24:30;100056.84;;;-1.88;86.49
77410;BME280;66481;51.332;22.804;2023-12-04T12:28:31;100055.09;;;-1.86;86.32
77410;BME280;66481;51.332;22.804;2023-12-04T12:32:35;100065.41;;;-1.81;86.63
77410;BME280;66481;51.332;22.804;2023-12-04T12:36:36;100049.91;;;-1.86;86.88
77410;BME280;66481;51.332;22.804;2023-12-04T12:40:37;100052.47;;;-1.84;86.47
77410;BME280;66481;51.332;22.804;2023-12-04T12:44:39;100043.34;;;-2.05;86.54
77410;BME280;66481;51.332;22.804;2023-12-04T12:48:42;100057.06;;;-2.00;87.00
77410;BME280;66481;51.332;22.804;2023-12-04T12:52:43;100048.25;;;-1.90;87.02
77410;BME280;66481;51.332;22.804;2023-12-04T12:56:44;100047.72;;;-2.09;87.45
77410;BME280;66481;51.332;22.804;2023-12-04T13:00:45;100040.03;;;-2.15;87.01
77410;BME280;66481;51.332;22.804;2023-12-04T13:04:46;100039.31;;;-2.25;87.44
77410;BME280;66481;51.332;22.804;2023-12-04T13:08:47;100057.41;;;-2.22;87.71
77410;BME280;66481;51.332;22.804;2023-12-04T13:12:49;100041.41;;;-2.49;88.30
77410;BME280;66481;51.332;22.804;2023-12-04T13:16:53;100056.75;;;-2.35;88.19
77410;BME280;66481;51.332;22.804;2023-12-04T13:20:55;100045.09;;;-2.63;88.66
77410;BME280;66481;51.332;22.804;2023-12-04T13:24:57;100033.25;;;-2.81;89.02
77410;BME280;66481;51.332;22.804;2023-12-04T13:28:58;100048.06;;;-2.91;89.63
77410;BME280;66481;51.332;22.804;2023-12-04T13:33:00;100039.38;;;-2.87;89.69
77410;BME280;66481;51.332;22.804;2023-12-04T13:37:01;100025.06;;;-3.16;89.20
77410;BME280;66481;51.332;22.804;2023-12-04T13:41:02;100033.06;;;-3.36;89.65
77410;BME280;66481;51.332;22.804;2023-12-04T13:45:21;100042.72;;;-3.50;89.97
77410;BME280;66481;51.332;22.804;2023-12-04T13:49:22;100041.13;;;-3.64;89.83
77410;BME280;66481;51.332;22.804;2023-12-04T13:53:23;100045.63;;;-3.80;89.50
77410;BME280;66481;51.332;22.804;2023-12-04T13:57:30;100038.97;;;-4.08;89.51
77410;BME280;66481;51.332;22.804;2023-12-04T14:01:45;100037.44;;;-4.31;89.93
77410;BME280;66481;51.332;22.804;2023-12-04T14:05:46;100047.94;;;-4.53;91.03
77410;BME280;66481;51.332;22.804;2023-12-04T14:09:47;100058.50;;;-4.91;91.40
77410;BME280;66481;51.332;22.804;2023-12-04T14:13:48;100056.94;;;-5.26;91.76
77410;BME280;66481;51.332;22.804;2023-12-04T14:17:49;100063.88;;;-5.51;92.70
77410;BME280;66481;51.332;22.804;2023-12-04T14:21:50;100072.53;;;-5.71;93.77
77410;BME280;66481;51.332;22.804;2023-12-04T14:25:51;100057.13;;;-5.98;93.92
77410;BME280;66481;51.332;22.804;2023-12-04T14:29:54;100080.31;;;-6.18;95.22
77410;BME280;66481;51.332;22.804;2023-12-04T14:33:55;100078.59;;;-6.29;96.72
77410;BME280;66481;51.332;22.804;2023-12-04T14:37:56;100094.03;;;-6.41;96.58
77410;BME280;66481;51.332;22.804;2023-12-04T14:41:58;100090.59;;;-6.54;97.62
77410;BME280;66481;51.332;22.804;2023-12-04T14:45:59;100087.13;;;-6.64;97.71
77410;BME280;66481;51.332;22.804;2023-12-04T14:50:00;100099.06;;;-6.84;98.35
77410;BME280;66481;51.332;22.804;2023-12-04T14:54:01;100098.19;;;-6.98;99.03
77410;BME280;66481;51.332;22.804;2023-12-04T14:58:05;100096.41;;;-7.10;99.58
77410;BME280;66481;51.332;22.804;2023-12-04T15:02:41;100102.34;;;-7.22;100.00
77410;BME280;66481;51.332;22.804;2023-12-04T15:07:00;100104.84;;;-7.42;100.00
77410;BME280;66481;51.332;22.804;2023-12-04T15:11:27;100096.13;;;-7.60;100.00
77410;BME280;66481;51.332;22.804;2023-12-04T15:15:51;100106.47;;;-7.52;100.00
77410;BME280;66481;51.332;22.804;2023-12-04T15:20:21;100117.53;;;-7.65;100.00
77410;BME280;66481;51.332;22.804;2023-12-04T15:24:49;100105.53;;;-7.63;100.00
77410;BME280;66481;51.332;22.804;2023-12-04T15:28:51;100115.00;;;-7.61;100.00
77410;BME280;66481;51.332;22.804;2023-12-04T15:32:52;100110.53;;;-7.85;100.00
77410;BME280;66481;51.332;22.804;2023-12-04T15:36:53;100110.31;;;-8.13;100.00
77410;BME280;66481;51.332;22.804;2023-12-04T15:40:54;100116.25;;;-8.21;100.00
77410;BME280;66481;51.332;22.804;2023-12-04T15:44:55;100122.97;;;-8.33;100.00
77410;BME280;66481;51.332;22.804;2023-12-04T15:48:56;100110.00;;;-8.51;100.00
77410;BME280;66481;51.332;22.804;2023-12-04T15:52:59;100110.81;;;-8.55;100.00
77410;BME280;66481;51.332;22.804;2023-12-04T15:57:00;100103.84;;;-8.65;100.00
77410;BME280;66481;51.332;22.804;2023-12-04T16:01:01;100122.78;;;-8.56;100.00
77410;BME280;66481;51.332;22.804;2023-12-04T16:05:06;100108.22;;;-8.57;100.00
77410;BME280;66481;51.332;22.804;2023-12-04T16:09:09;100109.91;;;-8.59;100.00
77410;BME280;66481;51.332;22.804;2023-12-04T16:13:14;100107.19;;;-8.74;100.00
77410;BME280;66481;51.332;22.804;2023-12-04T16:17:17;100114.84;;;-8.79;100.00
77410;BME280;66481;51.332;22.804;2023-12-04T16:21:18;100130.31;;;-8.71;100.00
77410;BME280;66481;51.332;22.804;2023-12-04T16:25:19;100126.88;;;-8.73;100.00
77410;BME280;66481;51.332;22.804;2023-12-04T16:29:21;100121.47;;;-8.95;100.00
77410;BME280;66481;51.332;22.804;2023-12-04T16:33:23;100120.63;;;-8.95;100.00
77410;BME280;66481;51.332;22.804;2023-12-04T16:37:23;100126.66;;;-8.92;100.00
77410;BME280;66481;51.332;22.804;2023-12-04T16:41:24;100124.97;;;-8.90;100.00
77410;BME280;66481;51.332;22.804;2023-12-04T16:45:26;100120.66;;;-8.94;100.00
77410;BME280;66481;51.332;22.804;2023-12-04T16:49:28;100125.00;;;-8.86;100.00
77410;BME280;66481;51.332;22.804;2023-12-04T16:53:30;100117.28;;;-8.88;100.00
77410;BME280;66481;51.332;22.804;2023-12-04T16:57:33;100105.97;;;-9.07;100.00
77410;BME280;66481;51.332;22.804;2023-12-04T17:01:35;100114.47;;;-9.11;100.00
77410;BME280;66481;51.332;22.804;2023-12-04T17:05:37;100122.91;;;-9.18;100.00
77410;BME280;66481;51.332;22.804;2023-12-04T17:09:38;100113.44;;;-9.24;100.00
77410;BME280;66481;51.332;22.804;2023-12-04T17:13:40;100115.81;;;-9.39;100.00
77410;BME280;66481;51.332;22.804;2023-12-04T17:17:41;100131.28;;;-9.32;100.00
77410;BME280;66481;51.332;22.804;2023-12-04T17:21:43;100129.53;;;-9.34;100.00
77410;BME280;66481;51.332;22.804;2023-12-04T17:25:45;100141.47;;;-9.35;100.00
77410;BME280;66481;51.332;22.804;2023-12-04T17:29:47;100139.09;;;-9.21;100.00
77410;BME280;66481;51.332;22.804;2023-12-04T17:33:48;100112.38;;;-9.40;100.00
77410;BME280;66481;51.332;22.804;2023-12-04T17:37:51;100121.84;;;-9.34;100.00
77410;BME280;66481;51.332;22.804;2023-12-04T17:41:52;100129.53;;;-9.34;100.00
77410;BME280;66481;51.332;22.804;2023-12-04T17:45:55;100133.00;;;-9.32;100.00
77410;BME280;66481;51.332;22.804;2023-12-04T17:49:57;100121.63;;;-9.51;100.00
77410;BME280;66481;51.332;22.804;2023-12-04T17:53:59;100127.50;;;-9.57;100.00
77410;BME280;66481;51.332;22.804;2023-12-04T17:58:01;100135.19;;;-9.57;100.00
77410;BME280;66481;51.332;22.804;2023-12-04T18:02:07;100133.41;;;-9.62;100.00
77410;BME280;66481;51.332;22.804;2023-12-04T18:06:11;100133.34;;;-9.69;100.00
77410;BME280;66481;51.332;22.804;2023-12-04T18:10:13;100125.22;;;-9.96;100.00
77410;BME280;66481;51.332;22.804;2023-12-04T18:14:15;100128.28;;;-10.19;100.00
77410;BME280;66481;51.332;22.804;2023-12-04T18:18:17;100133.38;;;-10.19;100.00
77410;BME280;66481;51.332;22.804;2023-12-04T18:22:19;100131.78;;;-10.11;100.00
77410;BME280;66481;51.332;22.804;2023-12-04T18:26:21;100137.91;;;-10.03;100.00
77410;BME280;66481;51.332;22.804;2023-12-04T18:30:22;100119.22;;;-9.97;100.00
77410;BME280;66481;51.332;22.804;2023-12-04T18:34:24;100118.03;;;-10.17;100.00
77410;BME280;66481;51.332;22.804;2023-12-04T18:38:31;100114.03;;;-10.99;100.00
77410;BME280;66481;51.332;22.804;2023-12-04T18:42:33;100117.94;;;-10.74;100.00
77410;BME280;66481;51.332;22.804;2023-12-04T18:46:35;100122.91;;;-10.36;100.00
77410;BME280;66481;51.332;22.804;2023-12-04T18:50:37;100114.41;;;-10.33;100.00
77410;BME280;66481;51.332;22.804;2023-12-04T18:54:41;100116.59;;;-10.55;100.00
77410;BME280;66481;51.332;22.804;2023-12-04T18:58:47;100119.13;;;-10.56;100.00
77410;BME280;66481;51.332;22.804;2023-12-04T19:08:09;100110.09;;;-10.83;100.00
77410;BME280;66481;51.332;22.804;2023-12-04T19:12:11;100121.34;;;-10.73;100.00
77410;BME280;66481;51.332;22.804;2023-12-04T19:16:14;100124.75;;;-10.73;100.00
77410;BME280;66481;51.332;22.804;2023-12-04T19:20:15;100121.22;;;-10.80;100.00
77410;BME280;66481;51.332;22.804;2023-12-04T19:24:18;100109.84;;;-10.95;100.00
77410;BME280;66481;51.332;22.804;2023-12-04T19:28:19;100125.09;;;-11.00;100.00
77410;BME280;66481;51.332;22.804;2023-12-04T19:32:21;100114.75;;;-11.06;100.00
77410;BME280;66481;51.332;22.804;2023-12-04T19:36:23;100122.25;;;-11.16;100.00
77410;BME280;66481;51.332;22.804;2023-12-04T19:40:25;100123.00;;;-11.20;100.00
77410;BME280;66481;51.332;22.804;2023-12-04T19:44:27;100113.41;;;-11.30;100.00
77410;BME280;66481;51.332;22.804;2023-12-04T19:48:29;100117.75;;;-11.27;100.00
77410;BME280;66481;51.332;22.804;2023-12-04T19:52:31;100120.28;;;-11.27;100.00
77410;BME280;66481;51.332;22.804;2023-12-04T19:56:32;100118.41;;;-11.36;100.00
77410;BME280;66481;51.332;22.804;2023-12-04T20:00:33;100114.47;;;-11.60;100.00
77410;BME280;66481;51.332;22.804;2023-12-04T20:04:40;100123.81;;;-11.62;100.00
77410;BME280;66481;51.332;22.804;2023-12-04T20:08:41;100118.53;;;-11.68;100.00
77410;BME280;66481;51.332;22.804;2023-12-04T20:12:42;100106.97;;;-11.93;100.00
77410;BME280;66481;51.332;22.804;2023-12-04T20:16:47;100108.78;;;-11.86;100.00
77410;BME280;66481;51.332;22.804;2023-12-04T20:20:49;100086.34;;;-12.02;100.00
77410;BME280;66481;51.332;22.804;2023-12-04T20:24:50;100086.97;;;-12.11;100.00
77410;BME280;66481;51.332;22.804;2023-12-04T20:28:54;100063.69;;;-12.26;100.00
77410;BME280;66481;51.332;22.804;2023-12-04T20:32:56;100083.41;;;-12.19;100.00
77410;BME280;66481;51.332;22.804;2023-12-04T20:36:57;100077.50;;;-12.17;100.00
77410;BME280;66481;51.332;22.804;2023-12-04T20:40:58;100070.66;;;-12.19;100.00
77410;BME280;66481;51.332;22.804;2023-12-04T20:45:00;100075.03;;;-12.14;100.00
77410;BME280;66481;51.332;22.804;2023-12-04T20:49:03;100074.13;;;-12.16;100.00
77410;BME280;66481;51.332;22.804;2023-12-04T20:53:04;100068.91;;;-12.20;100.00
77410;BME280;66481;51.332;22.804;2023-12-04T20:57:07;100059.16;;;-12.38;100.00